Terminal Aerodrome Forecast
Issued by NWS El Paso, TX

Home | Current Version | Previous Version | Text Only | Print | Product List | Glossary On
Versions: 1 2 3 4 5 6 7 8 9 10 11 12 13
000
FTUS44 KEPZ 012325
TAFELP
TAF
KELP 012325Z 0200/0224 23008KT P6SM SCT100 SCT250
     FM020500 14007KT P6SM SCT100 SCT250
     FM022000 24007KT P6SM SCT090 BKN250=

USA.gov is the U.S. government's official web portal to all federal, state and local government web resources and services.